sensor_id;sensor_type;location;lat;lon;timestamp;P1;durP1;ratioP1;P2;durP2;ratioP2
14167;SDS011;7163;50.626;12.922;2022-08-19T00:00:49;94.67;;;56.60;;
14167;SDS011;7163;50.626;12.922;2022-08-19T00:05:52;98.80;;;56.77;;
14167;SDS011;7163;50.626;12.922;2022-08-19T00:10:53;116.27;;;57.87;;
14167;SDS011;7163;50.626;12.922;2022-08-19T00:15:53;97.53;;;54.23;;
14167;SDS011;7163;50.626;12.922;2022-08-19T00:20:54;87.30;;;53.50;;
14167;SDS011;7163;50.626;12.922;2022-08-19T00:25:55;140.83;;;60.13;;
14167;SDS011;7163;50.626;12.922;2022-08-19T00:30:55;97.50;;;56.17;;
14167;SDS011;7163;50.626;12.922;2022-08-19T00:35:56;96.93;;;57.17;;
14167;SDS011;7163;50.626;12.922;2022-08-19T00:40:56;86.43;;;52.77;;
14167;SDS011;7163;50.626;12.922;2022-08-19T00:45:57;88.30;;;53.20;;
14167;SDS011;7163;50.626;12.922;2022-08-19T00:50:57;92.23;;;50.10;;
14167;SDS011;7163;50.626;12.922;2022-08-19T00:55:58;106.20;;;52.47;;
14167;SDS011;7163;50.626;12.922;2022-08-19T01:01:00;88.53;;;51.10;;
14167;SDS011;7163;50.626;12.922;2022-08-19T01:06:01;79.17;;;47.70;;
14167;SDS011;7163;50.626;12.922;2022-08-19T01:11:02;79.27;;;47.83;;
14167;SDS011;7163;50.626;12.922;2022-08-19T01:16:04;82.73;;;47.93;;
14167;SDS011;7163;50.626;12.922;2022-08-19T01:21:23;83.57;;;48.57;;
14167;SDS011;7163;50.626;12.922;2022-08-19T01:27:03;89.87;;;50.70;;
14167;SDS011;7163;50.626;12.922;2022-08-19T01:32:04;79.20;;;47.97;;
14167;SDS011;7163;50.626;12.922;2022-08-19T01:37:10;83.63;;;49.03;;
14167;SDS011;7163;50.626;12.922;2022-08-19T01:42:11;90.47;;;53.43;;
14167;SDS011;7163;50.626;12.922;2022-08-19T01:47:12;123.40;;;55.77;;
14167;SDS011;7163;50.626;12.922;2022-08-19T01:52:12;110.03;;;53.27;;
14167;SDS011;7163;50.626;12.922;2022-08-19T01:57:13;94.60;;;51.10;;
14167;SDS011;7163;50.626;12.922;2022-08-19T02:02:14;93.80;;;47.60;;
14167;SDS011;7163;50.626;12.922;2022-08-19T02:07:15;72.70;;;42.33;;
14167;SDS011;7163;50.626;12.922;2022-08-19T02:12:15;87.67;;;47.10;;
14167;SDS011;7163;50.626;12.922;2022-08-19T02:17:16;97.53;;;50.30;;
14167;SDS011;7163;50.626;12.922;2022-08-19T02:22:16;98.20;;;49.47;;
14167;SDS011;7163;50.626;12.922;2022-08-19T02:27:18;112.53;;;53.33;;
14167;SDS011;7163;50.626;12.922;2022-08-19T02:32:18;124.67;;;53.77;;
14167;SDS011;7163;50.626;12.922;2022-08-19T02:37:19;93.23;;;48.60;;
14167;SDS011;7163;50.626;12.922;2022-08-19T02:42:38;72.20;;;39.23;;
14167;SDS011;7163;50.626;12.922;2022-08-19T02:47:40;84.97;;;45.63;;
14167;SDS011;7163;50.626;12.922;2022-08-19T02:52:41;77.13;;;42.03;;
14167;SDS011;7163;50.626;12.922;2022-08-19T02:57:42;72.37;;;42.03;;
14167;SDS011;7163;50.626;12.922;2022-08-19T03:02:42;64.70;;;38.53;;
14167;SDS011;7163;50.626;12.922;2022-08-19T03:07:42;55.00;;;35.13;;
14167;SDS011;7163;50.626;12.922;2022-08-19T03:12:43;56.20;;;35.37;;
14167;SDS011;7163;50.626;12.922;2022-08-19T03:17:46;61.67;;;38.60;;
14167;SDS011;7163;50.626;12.922;2022-08-19T03:22:47;69.63;;;40.70;;
14167;SDS011;7163;50.626;12.922;2022-08-19T03:27:47;63.43;;;37.40;;
14167;SDS011;7163;50.626;12.922;2022-08-19T03:32:48;62.73;;;36.70;;
14167;SDS011;7163;50.626;12.922;2022-08-19T03:37:49;63.07;;;37.20;;
14167;SDS011;7163;50.626;12.922;2022-08-19T03:42:50;63.50;;;38.07;;
14167;SDS011;7163;50.626;12.922;2022-08-19T03:47:51;70.60;;;36.97;;
14167;SDS011;7163;50.626;12.922;2022-08-19T03:52:51;78.80;;;40.87;;
14167;SDS011;7163;50.626;12.922;2022-08-19T03:57:52;75.10;;;40.57;;
14167;SDS011;7163;50.626;12.922;2022-08-19T04:02:52;78.27;;;40.97;;
14167;SDS011;7163;50.626;12.922;2022-08-19T04:07:52;86.90;;;41.93;;
14167;SDS011;7163;50.626;12.922;2022-08-19T04:12:53;87.57;;;43.47;;
14167;SDS011;7163;50.626;12.922;2022-08-19T04:17:53;92.23;;;45.20;;
14167;SDS011;7163;50.626;12.922;2022-08-19T04:22:54;86.37;;;41.53;;
14167;SDS011;7163;50.626;12.922;2022-08-19T04:27:56;94.93;;;43.20;;
14167;SDS011;7163;50.626;12.922;2022-08-19T04:32:57;90.37;;;40.60;;
14167;SDS011;7163;50.626;12.922;2022-08-19T04:37:57;122.53;;;42.30;;
14167;SDS011;7163;50.626;12.922;2022-08-19T04:42:58;110.57;;;40.93;;
14167;SDS011;7163;50.626;12.922;2022-08-19T04:47:58;95.10;;;36.87;;
14167;SDS011;7163;50.626;12.922;2022-08-19T04:52:59;83.30;;;34.13;;
14167;SDS011;7163;50.626;12.922;2022-08-19T04:57:59;79.77;;;31.43;;
14167;SDS011;7163;50.626;12.922;2022-08-19T05:03:01;78.97;;;31.33;;
14167;SDS011;7163;50.626;12.922;2022-08-19T05:08:02;66.47;;;30.90;;
14167;SDS011;7163;50.626;12.922;2022-08-19T05:13:03;74.80;;;32.33;;
14167;SDS011;7163;50.626;12.922;2022-08-19T05:18:03;62.27;;;29.70;;
14167;SDS011;7163;50.626;12.922;2022-08-19T05:23:22;103.97;;;32.70;;
14167;SDS011;7163;50.626;12.922;2022-08-19T05:28:23;56.03;;;27.20;;
14167;SDS011;7163;50.626;12.922;2022-08-19T05:33:23;56.97;;;24.27;;
14167;SDS011;7163;50.626;12.922;2022-08-19T05:38:24;60.07;;;23.27;;
14167;SDS011;7163;50.626;12.922;2022-08-19T05:43:26;35.17;;;19.07;;
14167;SDS011;7163;50.626;12.922;2022-08-19T05:48:27;36.17;;;18.27;;
14167;SDS011;7163;50.626;12.922;2022-08-19T05:53:28;30.60;;;18.57;;
14167;SDS011;7163;50.626;12.922;2022-08-19T05:58:28;66.53;;;23.23;;
14167;SDS011;7163;50.626;12.922;2022-08-19T06:03:28;36.67;;;20.97;;
14167;SDS011;7163;50.626;12.922;2022-08-19T06:08:29;35.43;;;19.63;;
14167;SDS011;7163;50.626;12.922;2022-08-19T06:13:30;36.87;;;20.40;;
14167;SDS011;7163;50.626;12.922;2022-08-19T06:18:30;44.67;;;20.90;;
14167;SDS011;7163;50.626;12.922;2022-08-19T06:23:31;27.83;;;16.27;;
14167;SDS011;7163;50.626;12.922;2022-08-19T06:28:31;31.53;;;18.87;;
14167;SDS011;7163;50.626;12.922;2022-08-19T06:33:33;23.40;;;12.53;;
14167;SDS011;7163;50.626;12.922;2022-08-19T06:38:33;29.37;;;18.43;;
14167;SDS011;7163;50.626;12.922;2022-08-19T06:43:34;26.43;;;17.97;;
14167;SDS011;7163;50.626;12.922;2022-08-19T06:48:36;29.10;;;16.33;;
14167;SDS011;7163;50.626;12.922;2022-08-19T06:53:36;20.40;;;13.70;;
14167;SDS011;7163;50.626;12.922;2022-08-19T06:58:36;16.08;;;10.50;;
14167;SDS011;7163;50.626;12.922;2022-08-19T07:03:38;17.10;;;11.52;;
14167;SDS011;7163;50.626;12.922;2022-08-19T07:08:39;16.67;;;11.85;;
14167;SDS011;7163;50.626;12.922;2022-08-19T07:13:42;19.02;;;13.10;;
14167;SDS011;7163;50.626;12.922;2022-08-19T07:18:46;20.13;;;12.02;;
14167;SDS011;7163;50.626;12.922;2022-08-19T07:23:48;19.30;;;13.27;;
14167;SDS011;7163;50.626;12.922;2022-08-19T07:28:49;17.83;;;11.35;;
14167;SDS011;7163;50.626;12.922;2022-08-19T07:33:50;18.77;;;11.77;;
14167;SDS011;7163;50.626;12.922;2022-08-19T07:38:51;17.75;;;12.32;;
14167;SDS011;7163;50.626;12.922;2022-08-19T07:43:54;18.45;;;13.15;;
14167;SDS011;7163;50.626;12.922;2022-08-19T07:48:55;16.38;;;12.07;;
14167;SDS011;7163;50.626;12.922;2022-08-19T07:53:55;19.10;;;11.95;;
14167;SDS011;7163;50.626;12.922;2022-08-19T07:58:56;17.20;;;10.70;;
14167;SDS011;7163;50.626;12.922;2022-08-19T08:03:57;16.42;;;10.75;;
14167;SDS011;7163;50.626;12.922;2022-08-19T08:09:18;17.75;;;10.90;;
14167;SDS011;7163;50.626;12.922;2022-08-19T08:14:23;15.52;;;9.93;;
14167;SDS011;7163;50.626;12.922;2022-08-19T08:19:29;17.90;;;9.65;;
14167;SDS011;7163;50.626;12.922;2022-08-19T08:24:30;11.40;;;7.97;;
14167;SDS011;7163;50.626;12.922;2022-08-19T08:29:31;10.43;;;6.25;;
14167;SDS011;7163;50.626;12.922;2022-08-19T08:34:31;9.77;;;5.55;;
14167;SDS011;7163;50.626;12.922;2022-08-19T08:39:31;8.00;;;4.60;;
14167;SDS011;7163;50.626;12.922;2022-08-19T08:44:55;6.55;;;5.05;;
14167;SDS011;7163;50.626;12.922;2022-08-19T08:50:18;5.10;;;3.95;;
14167;SDS011;7163;50.626;12.922;2022-08-19T08:55:21;3.20;;;2.90;;
14167;SDS011;7163;50.626;12.922;2022-08-19T09:00:30;4.50;;;3.40;;
14167;SDS011;7163;50.626;12.922;2022-08-19T09:05:45;9.10;;;7.30;;
14167;SDS011;7163;50.626;12.922;2022-08-19T09:10:55;9.43;;;7.03;;
14167;SDS011;7163;50.626;12.922;2022-08-19T09:16:05;14.57;;;9.20;;
14167;SDS011;7163;50.626;12.922;2022-08-19T09:21:07;23.15;;;14.00;;
14167;SDS011;7163;50.626;12.922;2022-08-19T09:26:10;21.25;;;14.00;;
14167;SDS011;7163;50.626;12.922;2022-08-19T09:31:14;28.38;;;17.60;;
14167;SDS011;7163;50.626;12.922;2022-08-19T09:36:20;33.08;;;18.73;;
14167;SDS011;7163;50.626;12.922;2022-08-19T09:41:23;28.58;;;18.88;;
14167;SDS011;7163;50.626;12.922;2022-08-19T09:46:25;25.50;;;18.25;;
14167;SDS011;7163;50.626;12.922;2022-08-19T09:51:27;35.88;;;20.05;;
14167;SDS011;7163;50.626;12.922;2022-08-19T09:56:29;32.65;;;22.55;;
14167;SDS011;7163;50.626;12.922;2022-08-19T10:01:30;44.92;;;28.77;;
14167;SDS011;7163;50.626;12.922;2022-08-19T10:06:32;46.38;;;30.23;;
14167;SDS011;7163;50.626;12.922;2022-08-19T10:11:34;48.90;;;33.75;;
14167;SDS011;7163;50.626;12.922;2022-08-19T10:16:35;51.00;;;35.72;;
14167;SDS011;7163;50.626;12.922;2022-08-19T10:21:36;54.28;;;35.42;;
14167;SDS011;7163;50.626;12.922;2022-08-19T10:26:38;54.08;;;37.78;;
14167;SDS011;7163;50.626;12.922;2022-08-19T10:31:41;60.28;;;38.10;;
14167;SDS011;7163;50.626;12.922;2022-08-19T10:36:42;58.42;;;38.30;;
14167;SDS011;7163;50.626;12.922;2022-08-19T10:41:43;55.65;;;39.28;;
14167;SDS011;7163;50.626;12.922;2022-08-19T10:46:44;59.55;;;40.40;;
14167;SDS011;7163;50.626;12.922;2022-08-19T10:51:46;60.25;;;39.22;;
14167;SDS011;7163;50.626;12.922;2022-08-19T10:57:05;72.07;;;42.50;;
14167;SDS011;7163;50.626;12.922;2022-08-19T11:02:07;59.35;;;42.33;;
14167;SDS011;7163;50.626;12.922;2022-08-19T11:07:09;54.03;;;40.28;;
14167;SDS011;7163;50.626;12.922;2022-08-19T11:12:11;49.65;;;36.78;;
14167;SDS011;7163;50.626;12.922;2022-08-19T11:17:12;59.33;;;44.05;;
14167;SDS011;7163;50.626;12.922;2022-08-19T11:22:13;67.55;;;47.53;;
14167;SDS011;7163;50.626;12.922;2022-08-19T11:27:14;73.57;;;48.03;;
14167;SDS011;7163;50.626;12.922;2022-08-19T11:32:14;73.10;;;47.17;;
14167;SDS011;7163;50.626;12.922;2022-08-19T11:37:15;81.85;;;49.53;;
14167;SDS011;7163;50.626;12.922;2022-08-19T11:42:17;58.80;;;37.45;;
14167;SDS011;7163;50.626;12.922;2022-08-19T11:47:36;43.10;;;30.40;;
14167;SDS011;7163;50.626;12.922;2022-08-19T11:52:38;36.20;;;25.85;;
14167;SDS011;7163;50.626;12.922;2022-08-19T11:57:39;36.83;;;25.90;;
14167;SDS011;7163;50.626;12.922;2022-08-19T12:02:40;34.08;;;23.45;;
14167;SDS011;7163;50.626;12.922;2022-08-19T12:07:42;31.10;;;21.30;;
14167;SDS011;7163;50.626;12.922;2022-08-19T12:12:43;32.80;;;21.55;;
14167;SDS011;7163;50.626;12.922;2022-08-19T12:17:46;26.33;;;18.45;;
14167;SDS011;7163;50.626;12.922;2022-08-19T12:22:46;24.25;;;15.30;;
14167;SDS011;7163;50.626;12.922;2022-08-19T12:27:48;27.92;;;17.50;;
14167;SDS011;7163;50.626;12.922;2022-08-19T12:32:49;15.15;;;11.60;;
14167;SDS011;7163;50.626;12.922;2022-08-19T12:37:51;13.90;;;9.13;;
14167;SDS011;7163;50.626;12.922;2022-08-19T12:42:51;17.73;;;12.68;;
14167;SDS011;7163;50.626;12.922;2022-08-19T12:47:51;22.20;;;15.20;;
14167;SDS011;7163;50.626;12.922;2022-08-19T12:52:52;25.30;;;16.20;;
14167;SDS011;7163;50.626;12.922;2022-08-19T12:57:53;24.70;;;17.25;;
14167;SDS011;7163;50.626;12.922;2022-08-19T13:02:53;32.42;;;22.75;;
14167;SDS011;7163;50.626;12.922;2022-08-19T13:07:54;35.25;;;23.20;;
14167;SDS011;7163;50.626;12.922;2022-08-19T13:12:56;40.63;;;27.05;;
14167;SDS011;7163;50.626;12.922;2022-08-19T13:17:59;50.33;;;32.08;;
14167;SDS011;7163;50.626;12.922;2022-08-19T13:22:59;48.38;;;30.48;;
14167;SDS011;7163;50.626;12.922;2022-08-19T13:28:00;65.78;;;37.28;;
14167;SDS011;7163;50.626;12.922;2022-08-19T13:33:00;74.63;;;43.33;;
14167;SDS011;7163;50.626;12.922;2022-08-19T13:38:17;79.25;;;46.35;;
14167;SDS011;7163;50.626;12.922;2022-08-19T13:43:22;93.30;;;46.67;;
14167;SDS011;7163;50.626;12.922;2022-08-19T13:48:24;101.47;;;51.60;;
14167;SDS011;7163;50.626;12.922;2022-08-19T13:53:26;98.82;;;49.08;;
14167;SDS011;7163;50.626;12.922;2022-08-19T13:58:27;105.18;;;52.72;;
14167;SDS011;7163;50.626;12.922;2022-08-19T14:03:27;101.53;;;51.00;;
14167;SDS011;7163;50.626;12.922;2022-08-19T14:08:28;104.47;;;51.70;;
14167;SDS011;7163;50.626;12.922;2022-08-19T14:13:29;93.72;;;50.13;;
14167;SDS011;7163;50.626;12.922;2022-08-19T14:18:29;119.10;;;53.72;;
14167;SDS011;7163;50.626;12.922;2022-08-19T14:23:30;106.10;;;52.75;;
14167;SDS011;7163;50.626;12.922;2022-08-19T14:28:30;111.88;;;50.53;;
14167;SDS011;7163;50.626;12.922;2022-08-19T14:33:31;102.35;;;51.22;;
14167;SDS011;7163;50.626;12.922;2022-08-19T14:38:32;107.35;;;50.90;;
14167;SDS011;7163;50.626;12.922;2022-08-19T14:43:33;101.75;;;47.03;;
14167;SDS011;7163;50.626;12.922;2022-08-19T14:48:34;121.70;;;55.13;;
14167;SDS011;7163;50.626;12.922;2022-08-19T14:53:36;112.45;;;49.30;;
14167;SDS011;7163;50.626;12.922;2022-08-19T14:58:37;109.03;;;48.85;;
14167;SDS011;7163;50.626;12.922;2022-08-19T15:03:38;154.70;;;54.42;;
14167;SDS011;7163;50.626;12.922;2022-08-19T15:08:41;120.63;;;50.88;;
14167;SDS011;7163;50.626;12.922;2022-08-19T15:13:43;125.55;;;51.90;;
14167;SDS011;7163;50.626;12.922;2022-08-19T15:18:45;111.93;;;50.22;;
14167;SDS011;7163;50.626;12.922;2022-08-19T15:23:47;109.43;;;50.70;;
14167;SDS011;7163;50.626;12.922;2022-08-19T15:28:49;99.60;;;47.30;;
14167;SDS011;7163;50.626;12.922;2022-08-19T15:33:49;105.45;;;51.38;;
14167;SDS011;7163;50.626;12.922;2022-08-19T15:38:49;101.13;;;50.17;;
14167;SDS011;7163;50.626;12.922;2022-08-19T15:43:56;85.85;;;46.25;;
14167;SDS011;7163;50.626;12.922;2022-08-19T15:48:58;87.95;;;45.60;;
14167;SDS011;7163;50.626;12.922;2022-08-19T15:54:00;82.70;;;46.03;;
14167;SDS011;7163;50.626;12.922;2022-08-19T15:59:02;82.90;;;46.72;;
14167;SDS011;7163;50.626;12.922;2022-08-19T16:04:21;91.30;;;51.97;;
14167;SDS011;7163;50.626;12.922;2022-08-19T16:09:41;81.85;;;46.78;;
14167;SDS011;7163;50.626;12.922;2022-08-19T16:14:41;82.47;;;48.53;;
14167;SDS011;7163;50.626;12.922;2022-08-19T16:19:41;74.43;;;41.67;;
14167;SDS011;7163;50.626;12.922;2022-08-19T16:24:42;64.47;;;41.30;;
14167;SDS011;7163;50.626;12.922;2022-08-19T16:29:42;86.88;;;48.88;;
14167;SDS011;7163;50.626;12.922;2022-08-19T16:34:43;90.15;;;50.85;;
14167;SDS011;7163;50.626;12.922;2022-08-19T16:39:44;86.28;;;50.25;;
14167;SDS011;7163;50.626;12.922;2022-08-19T16:44:44;92.20;;;50.85;;
14167;SDS011;7163;50.626;12.922;2022-08-19T16:49:45;99.07;;;52.53;;
14167;SDS011;7163;50.626;12.922;2022-08-19T16:54:45;114.95;;;58.17;;
14167;SDS011;7163;50.626;12.922;2022-08-19T16:59:46;104.65;;;56.72;;
14167;SDS011;7163;50.626;12.922;2022-08-19T17:04:48;105.47;;;58.03;;
14167;SDS011;7163;50.626;12.922;2022-08-19T17:09:49;89.60;;;51.40;;
14167;SDS011;7163;50.626;12.922;2022-08-19T17:14:49;102.83;;;50.03;;
14167;SDS011;7163;50.626;12.922;2022-08-19T17:19:49;101.10;;;53.47;;
14167;SDS011;7163;50.626;12.922;2022-08-19T17:24:50;195.67;;;112.93;;
14167;SDS011;7163;50.626;12.922;2022-08-19T17:29:50;116.72;;;58.65;;
14167;SDS011;7163;50.626;12.922;2022-08-19T17:34:52;138.87;;;60.20;;
14167;SDS011;7163;50.626;12.922;2022-08-19T17:39:53;151.07;;;60.90;;
14167;SDS011;7163;50.626;12.922;2022-08-19T17:44:53;144.83;;;61.27;;
14167;SDS011;7163;50.626;12.922;2022-08-19T17:49:57;131.30;;;58.90;;
14167;SDS011;7163;50.626;12.922;2022-08-19T17:54:57;136.80;;;59.40;;
14167;SDS011;7163;50.626;12.922;2022-08-19T17:59:58;135.13;;;60.20;;
14167;SDS011;7163;50.626;12.922;2022-08-19T18:04:58;125.83;;;54.40;;
14167;SDS011;7163;50.626;12.922;2022-08-19T18:09:59;139.17;;;56.30;;
14167;SDS011;7163;50.626;12.922;2022-08-19T18:14:59;244.80;;;68.40;;
14167;SDS011;7163;50.626;12.922;2022-08-19T18:20:06;139.63;;;56.40;;
14167;SDS011;7163;50.626;12.922;2022-08-19T18:30:18;135.10;;;57.10;;
14167;SDS011;7163;50.626;12.922;2022-08-19T18:35:20;165.57;;;64.47;;
14167;SDS011;7163;50.626;12.922;2022-08-19T18:40:24;134.80;;;60.23;;
14167;SDS011;7163;50.626;12.922;2022-08-19T18:45:44;149.67;;;64.13;;
14167;SDS011;7163;50.626;12.922;2022-08-19T18:51:03;141.67;;;63.30;;
14167;SDS011;7163;50.626;12.922;2022-08-19T18:56:04;141.43;;;61.03;;
14167;SDS011;7163;50.626;12.922;2022-08-19T19:01:08;136.60;;;61.13;;
14167;SDS011;7163;50.626;12.922;2022-08-19T19:06:12;113.47;;;54.40;;
14167;SDS011;7163;50.626;12.922;2022-08-19T19:11:15;112.03;;;53.87;;
14167;SDS011;7163;50.626;12.922;2022-08-19T19:16:44;120.47;;;55.43;;
14167;SDS011;7163;50.626;12.922;2022-08-19T19:21:47;108.43;;;51.87;;
14167;SDS011;7163;50.626;12.922;2022-08-19T19:26:49;124.73;;;54.33;;
14167;SDS011;7163;50.626;12.922;2022-08-19T19:31:51;130.90;;;56.67;;
14167;SDS011;7163;50.626;12.922;2022-08-19T19:36:52;109.30;;;50.83;;
14167;SDS011;7163;50.626;12.922;2022-08-19T19:41:52;119.23;;;54.60;;
14167;SDS011;7163;50.626;12.922;2022-08-19T19:46:53;123.70;;;55.40;;
14167;SDS011;7163;50.626;12.922;2022-08-19T19:51:55;110.50;;;50.53;;
14167;SDS011;7163;50.626;12.922;2022-08-19T19:56:55;119.73;;;54.60;;
14167;SDS011;7163;50.626;12.922;2022-08-19T20:01:57;97.30;;;48.13;;
14167;SDS011;7163;50.626;12.922;2022-08-19T20:06:58;107.50;;;49.43;;
14167;SDS011;7163;50.626;12.922;2022-08-19T20:11:58;79.00;;;41.17;;
14167;SDS011;7163;50.626;12.922;2022-08-19T20:16:58;97.43;;;47.37;;
14167;SDS011;7163;50.626;12.922;2022-08-19T20:21:59;98.13;;;45.40;;
14167;SDS011;7163;50.626;12.922;2022-08-19T20:27:00;99.00;;;46.30;;
14167;SDS011;7163;50.626;12.922;2022-08-19T20:32:01;89.23;;;41.90;;
14167;SDS011;7163;50.626;12.922;2022-08-19T20:37:02;107.37;;;47.97;;
14167;SDS011;7163;50.626;12.922;2022-08-19T20:42:02;119.53;;;50.63;;
14167;SDS011;7163;50.626;12.922;2022-08-19T20:47:03;97.50;;;46.80;;
14167;SDS011;7163;50.626;12.922;2022-08-19T20:52:04;109.10;;;45.87;;
14167;SDS011;7163;50.626;12.922;2022-08-19T20:57:04;169.37;;;57.27;;
14167;SDS011;7163;50.626;12.922;2022-08-19T21:02:05;109.70;;;47.60;;
14167;SDS011;7163;50.626;12.922;2022-08-19T21:07:07;121.23;;;49.83;;
14167;SDS011;7163;50.626;12.922;2022-08-19T21:12:08;112.00;;;48.73;;
14167;SDS011;7163;50.626;12.922;2022-08-19T21:17:11;104.33;;;47.23;;
14167;SDS011;7163;50.626;12.922;2022-08-19T21:22:12;100.50;;;47.90;;
14167;SDS011;7163;50.626;12.922;2022-08-19T21:27:12;88.70;;;42.73;;
14167;SDS011;7163;50.626;12.922;2022-08-19T21:32:12;87.73;;;41.17;;
14167;SDS011;7163;50.626;12.922;2022-08-19T21:37:13;68.47;;;34.67;;
14167;SDS011;7163;50.626;12.922;2022-08-19T21:42:13;97.97;;;44.10;;
14167;SDS011;7163;50.626;12.922;2022-08-19T21:47:14;96.93;;;44.93;;
14167;SDS011;7163;50.626;12.922;2022-08-19T21:52:21;102.90;;;47.43;;
14167;SDS011;7163;50.626;12.922;2022-08-19T21:57:25;102.23;;;44.50;;
14167;SDS011;7163;50.626;12.922;2022-08-19T22:02:26;87.83;;;42.40;;
14167;SDS011;7163;50.626;12.922;2022-08-19T22:07:27;111.87;;;47.27;;
14167;SDS011;7163;50.626;12.922;2022-08-19T22:12:29;109.50;;;44.67;;
14167;SDS011;7163;50.626;12.922;2022-08-19T22:17:31;128.90;;;50.80;;
14167;SDS011;7163;50.626;12.922;2022-08-19T22:22:32;135.20;;;51.37;;
14167;SDS011;7163;50.626;12.922;2022-08-19T22:27:33;88.93;;;41.97;;
14167;SDS011;7163;50.626;12.922;2022-08-19T22:32:34;96.07;;;43.93;;
14167;SDS011;7163;50.626;12.922;2022-08-19T22:37:35;100.43;;;43.37;;
14167;SDS011;7163;50.626;12.922;2022-08-19T22:42:35;118.13;;;48.47;;
14167;SDS011;7163;50.626;12.922;2022-08-19T22:47:38;135.10;;;51.28;;
14167;SDS011;7163;50.626;12.922;2022-08-19T22:52:39;131.47;;;56.07;;
14167;SDS011;7163;50.626;12.922;2022-08-19T22:57:42;117.27;;;51.17;;
14167;SDS011;7163;50.626;12.922;2022-08-19T23:02:42;87.80;;;41.77;;
14167;SDS011;7163;50.626;12.922;2022-08-19T23:07:44;88.77;;;41.90;;
14167;SDS011;7163;50.626;12.922;2022-08-19T23:12:46;107.77;;;48.80;;
14167;SDS011;7163;50.626;12.922;2022-08-19T23:17:47;113.22;;;49.90;;
14167;SDS011;7163;50.626;12.922;2022-08-19T23:22:47;126.47;;;54.40;;
14167;SDS011;7163;50.626;12.922;2022-08-19T23:27:50;108.78;;;50.90;;
14167;SDS011;7163;50.626;12.922;2022-08-19T23:33:19;123.43;;;53.33;;
14167;SDS011;7163;50.626;12.922;2022-08-19T23:38:23;108.77;;;51.80;;
14167;SDS011;7163;50.626;12.922;2022-08-19T23:43:25;111.40;;;50.93;;
14167;SDS011;7163;50.626;12.922;2022-08-19T23:48:30;89.50;;;48.23;;
14167;SDS011;7163;50.626;12.922;2022-08-19T23:53:32;87.50;;;46.93;;
14167;SDS011;7163;50.626;12.922;2022-08-19T23:58:33;84.87;;;45.30;;
